sensor_id;sensor_type;location;lat;lon;timestamp;temperature;humidity
9885;DHT22;4981;50.966;4.842;2023-02-15T00:08:19;4.60;1.00
9885;DHT22;4981;50.966;4.842;2023-02-15T00:37:51;4.30;1.00
9885;DHT22;4981;50.966;4.842;2023-02-15T00:45:16;4.20;1.00
9885;DHT22;4981;50.966;4.842;2023-02-15T00:57:35;4.40;1.00
9885;DHT22;4981;50.966;4.842;2023-02-15T01:09:53;4.80;1.00
9885;DHT22;4981;50.966;4.842;2023-02-15T01:14:50;4.90;1.00
9885;DHT22;4981;50.966;4.842;2023-02-15T01:19:45;4.70;1.00
9885;DHT22;4981;50.966;4.842;2023-02-15T01:22:12;4.90;1.00
9885;DHT22;4981;50.966;4.842;2023-02-15T01:29:35;4.80;1.00
9885;DHT22;4981;50.966;4.842;2023-02-15T01:34:32;4.70;1.00
9885;DHT22;4981;50.966;4.842;2023-02-15T01:37:00;5.00;1.00
9885;DHT22;4981;50.966;4.842;2023-02-15T01:39:28;5.00;1.00
9885;DHT22;4981;50.966;4.842;2023-02-15T01:41:55;4.40;1.00
9885;DHT22;4981;50.966;4.842;2023-02-15T01:47:13;4.80;1.00
9885;DHT22;4981;50.966;4.842;2023-02-15T01:49:43;5.30;1.00
9885;DHT22;4981;50.966;4.842;2023-02-15T01:52:15;4.90;1.00
9885;DHT22;4981;50.966;4.842;2023-02-15T01:54:45;4.90;1.00
9885;DHT22;4981;50.966;4.842;2023-02-15T01:57:16;4.80;1.00
9885;DHT22;4981;50.966;4.842;2023-02-15T02:04:48;4.60;1.00
9885;DHT22;4981;50.966;4.842;2023-02-15T02:07:18;4.60;1.00
9885;DHT22;4981;50.966;4.842;2023-02-15T02:09:46;4.20;1.00
9885;DHT22;4981;50.966;4.842;2023-02-15T02:12:14;4.40;1.00
9885;DHT22;4981;50.966;4.842;2023-02-15T02:14:43;3.40;1.00
9885;DHT22;4981;50.966;4.842;2023-02-15T02:17:18;4.70;1.00
9885;DHT22;4981;50.966;4.842;2023-02-15T02:32:25;3.40;1.00
9885;DHT22;4981;50.966;4.842;2023-02-15T02:35:00;4.10;1.00
9885;DHT22;4981;50.966;4.842;2023-02-15T02:37:34;4.40;1.00
9885;DHT22;4981;50.966;4.842;2023-02-15T02:40:07;4.00;1.00
9885;DHT22;4981;50.966;4.842;2023-02-15T02:42:40;4.20;1.00
9885;DHT22;4981;50.966;4.842;2023-02-15T02:45:11;3.70;1.00
9885;DHT22;4981;50.966;4.842;2023-02-15T02:47:44;3.50;1.00
9885;DHT22;4981;50.966;4.842;2023-02-15T02:50:17;3.60;1.00
9885;DHT22;4981;50.966;4.842;2023-02-15T02:52:46;3.80;1.00
9885;DHT22;4981;50.966;4.842;2023-02-15T02:55:16;3.40;1.00
9885;DHT22;4981;50.966;4.842;2023-02-15T02:57:52;3.20;1.00
9885;DHT22;4981;50.966;4.842;2023-02-15T03:00:21;3.60;1.00
9885;DHT22;4981;50.966;4.842;2023-02-15T03:02:55;3.40;1.00
9885;DHT22;4981;50.966;4.842;2023-02-15T03:05:27;3.30;1.00
9885;DHT22;4981;50.966;4.842;2023-02-15T03:07:56;3.30;1.00
9885;DHT22;4981;50.966;4.842;2023-02-15T03:25:42;3.70;1.00
9885;DHT22;4981;50.966;4.842;2023-02-15T03:28:15;3.80;1.00
9885;DHT22;4981;50.966;4.842;2023-02-15T03:33:13;3.60;1.00
9885;DHT22;4981;50.966;4.842;2023-02-15T03:35:47;4.10;1.00
9885;DHT22;4981;50.966;4.842;2023-02-15T03:43:37;4.00;1.00
9885;DHT22;4981;50.966;4.842;2023-02-15T03:46:11;4.10;1.00
9885;DHT22;4981;50.966;4.842;2023-02-15T03:48:41;4.00;1.00
9885;DHT22;4981;50.966;4.842;2023-02-15T03:56:27;4.20;1.00
9885;DHT22;4981;50.966;4.842;2023-02-15T03:58:54;4.30;1.00
9885;DHT22;4981;50.966;4.842;2023-02-15T04:04:34;4.20;1.00
9885;DHT22;4981;50.966;4.842;2023-02-15T04:14:45;3.90;1.00
9885;DHT22;4981;50.966;4.842;2023-02-15T04:19:57;4.20;1.00
9885;DHT22;4981;50.966;4.842;2023-02-15T05:24:37;4.50;1.00
9885;DHT22;4981;50.966;4.842;2023-02-15T05:27:23;4.40;1.00
9885;DHT22;4981;50.966;4.842;2023-02-15T05:30:08;4.50;1.00
9885;DHT22;4981;50.966;4.842;2023-02-15T05:32:37;4.00;1.00
9885;DHT22;4981;50.966;4.842;2023-02-15T05:37:32;3.70;1.00
9885;DHT22;4981;50.966;4.842;2023-02-15T05:39:59;3.80;1.00
9885;DHT22;4981;50.966;4.842;2023-02-15T05:42:28;3.50;1.00
9885;DHT22;4981;50.966;4.842;2023-02-15T05:47:23;3.90;1.00
9885;DHT22;4981;50.966;4.842;2023-02-15T05:52:18;3.90;1.00
9885;DHT22;4981;50.966;4.842;2023-02-15T05:54:45;3.70;1.00
9885;DHT22;4981;50.966;4.842;2023-02-15T05:59:41;3.60;1.00
9885;DHT22;4981;50.966;4.842;2023-02-15T06:02:09;3.80;1.00
9885;DHT22;4981;50.966;4.842;2023-02-15T06:07:04;3.80;1.00
9885;DHT22;4981;50.966;4.842;2023-02-15T06:09:31;4.70;1.00
9885;DHT22;4981;50.966;4.842;2023-02-15T06:11:59;3.90;1.00
9885;DHT22;4981;50.966;4.842;2023-02-15T06:14:26;3.70;1.00
9885;DHT22;4981;50.966;4.842;2023-02-15T06:16:55;4.00;1.00
9885;DHT22;4981;50.966;4.842;2023-02-15T06:21:50;3.40;1.00
9885;DHT22;4981;50.966;4.842;2023-02-15T06:24:17;3.30;1.00
9885;DHT22;4981;50.966;4.842;2023-02-15T06:26:45;3.10;1.00
9885;DHT22;4981;50.966;4.842;2023-02-15T06:29:12;3.00;1.00
9885;DHT22;4981;50.966;4.842;2023-02-15T06:31:39;2.60;1.00
9885;DHT22;4981;50.966;4.842;2023-02-15T06:34:08;2.70;1.00
9885;DHT22;4981;50.966;4.842;2023-02-15T06:36:35;2.90;1.00
9885;DHT22;4981;50.966;4.842;2023-02-15T06:39:03;3.10;1.00
9885;DHT22;4981;50.966;4.842;2023-02-15T06:43:59;2.80;1.00
9885;DHT22;4981;50.966;4.842;2023-02-15T06:46:26;2.60;1.00
9885;DHT22;4981;50.966;4.842;2023-02-15T06:48:54;2.50;1.00
9885;DHT22;4981;50.966;4.842;2023-02-15T06:56:18;2.40;1.00
9885;DHT22;4981;50.966;4.842;2023-02-15T06:58:45;2.40;1.00
9885;DHT22;4981;50.966;4.842;2023-02-15T07:01:15;2.50;1.00
9885;DHT22;4981;50.966;4.842;2023-02-15T07:03:42;2.70;1.00
9885;DHT22;4981;50.966;4.842;2023-02-15T07:08:39;2.80;1.00
9885;DHT22;4981;50.966;4.842;2023-02-15T07:11:07;2.40;1.00
9885;DHT22;4981;50.966;4.842;2023-02-15T07:18:47;2.30;1.00
9885;DHT22;4981;50.966;4.842;2023-02-15T07:21:14;3.00;1.00
9885;DHT22;4981;50.966;4.842;2023-02-15T07:23:44;2.70;1.00
9885;DHT22;4981;50.966;4.842;2023-02-15T07:26:11;3.30;1.00
9885;DHT22;4981;50.966;4.842;2023-02-15T07:28:38;2.60;1.00
9885;DHT22;4981;50.966;4.842;2023-02-15T07:31:06;2.70;1.00
9885;DHT22;4981;50.966;4.842;2023-02-15T07:33:33;2.80;1.00
9885;DHT22;4981;50.966;4.842;2023-02-15T07:36:05;2.80;1.00
9885;DHT22;4981;50.966;4.842;2023-02-15T07:48:28;3.50;1.00
9885;DHT22;4981;50.966;4.842;2023-02-15T07:50:58;3.70;1.00
9885;DHT22;4981;50.966;4.842;2023-02-15T07:53:26;4.20;1.00
9885;DHT22;4981;50.966;4.842;2023-02-15T07:55:53;4.30;1.00
9885;DHT22;4981;50.966;4.842;2023-02-15T07:58:23;4.10;1.00
9885;DHT22;4981;50.966;4.842;2023-02-15T08:01:11;4.20;1.00
9885;DHT22;4981;50.966;4.842;2023-02-15T08:03:38;4.60;1.00
9885;DHT22;4981;50.966;4.842;2023-02-15T08:06:06;4.20;1.00
9885;DHT22;4981;50.966;4.842;2023-02-15T09:25:51;7.40;1.00
9885;DHT22;4981;50.966;4.842;2023-02-15T09:33:14;7.10;1.00
9885;DHT22;4981;50.966;4.842;2023-02-15T09:54:17;7.70;1.00
9885;DHT22;4981;50.966;4.842;2023-02-15T09:56:52;7.90;1.00
9885;DHT22;4981;50.966;4.842;2023-02-15T09:59:28;8.00;1.00
9885;DHT22;4981;50.966;4.842;2023-02-15T10:43:24;9.40;1.00
9885;DHT22;4981;50.966;4.842;2023-02-15T11:24:20;10.90;1.00
9885;DHT22;4981;50.966;4.842;2023-02-15T12:42:01;12.90;1.00
9885;DHT22;4981;50.966;4.842;2023-02-15T12:49:28;13.10;1.00
9885;DHT22;4981;50.966;4.842;2023-02-15T12:54:37;13.40;1.00
9885;DHT22;4981;50.966;4.842;2023-02-15T12:57:21;13.70;1.00
9885;DHT22;4981;50.966;4.842;2023-02-15T12:59:51;13.70;1.00
9885;DHT22;4981;50.966;4.842;2023-02-15T13:04:53;13.70;1.00
9885;DHT22;4981;50.966;4.842;2023-02-15T13:07:21;13.70;1.00
9885;DHT22;4981;50.966;4.842;2023-02-15T13:14:50;14.10;1.00
9885;DHT22;4981;50.966;4.842;2023-02-15T13:17:21;14.00;1.00
9885;DHT22;4981;50.966;4.842;2023-02-15T13:22:28;13.90;1.00
9885;DHT22;4981;50.966;4.842;2023-02-15T13:25:04;14.10;1.00
9885;DHT22;4981;50.966;4.842;2023-02-15T13:40:22;14.00;1.00
9885;DHT22;4981;50.966;4.842;2023-02-15T13:42:55;14.10;1.00
9885;DHT22;4981;50.966;4.842;2023-02-15T13:48:06;14.50;1.00
9885;DHT22;4981;50.966;4.842;2023-02-15T13:50:51;14.50;1.00
9885;DHT22;4981;50.966;4.842;2023-02-15T13:53:36;14.60;1.00
9885;DHT22;4981;50.966;4.842;2023-02-15T13:56:15;14.50;1.00
9885;DHT22;4981;50.966;4.842;2023-02-15T14:01:41;14.70;1.00
9885;DHT22;4981;50.966;4.842;2023-02-15T14:07:16;14.80;1.00
9885;DHT22;4981;50.966;4.842;2023-02-15T14:09:51;14.90;1.00
9885;DHT22;4981;50.966;4.842;2023-02-15T14:12:34;14.30;1.00
9885;DHT22;4981;50.966;4.842;2023-02-15T14:15:29;14.40;1.00
9885;DHT22;4981;50.966;4.842;2023-02-15T14:18:12;14.40;1.00
9885;DHT22;4981;50.966;4.842;2023-02-15T14:20:53;14.60;1.00
9885;DHT22;4981;50.966;4.842;2023-02-15T14:25:59;14.40;1.00
9885;DHT22;4981;50.966;4.842;2023-02-15T14:28:35;14.50;1.00
9885;DHT22;4981;50.966;4.842;2023-02-15T14:31:10;15.10;1.00
9885;DHT22;4981;50.966;4.842;2023-02-15T14:33:39;14.50;1.00
9885;DHT22;4981;50.966;4.842;2023-02-15T14:38:48;14.30;1.00
9885;DHT22;4981;50.966;4.842;2023-02-15T14:43:59;14.20;1.00
9885;DHT22;4981;50.966;4.842;2023-02-15T14:51:57;14.20;1.00
9885;DHT22;4981;50.966;4.842;2023-02-15T14:54:58;14.10;1.00
9885;DHT22;4981;50.966;4.842;2023-02-15T14:57:31;14.20;1.00
9885;DHT22;4981;50.966;4.842;2023-02-15T15:02:46;14.20;1.00
9885;DHT22;4981;50.966;4.842;2023-02-15T15:16:28;13.80;1.00
9885;DHT22;4981;50.966;4.842;2023-02-15T15:18:55;13.90;1.00
9885;DHT22;4981;50.966;4.842;2023-02-15T15:21:56;13.90;1.00
9885;DHT22;4981;50.966;4.842;2023-02-15T15:24:56;13.80;1.00
9885;DHT22;4981;50.966;4.842;2023-02-15T15:33:19;13.50;1.00
9885;DHT22;4981;50.966;4.842;2023-02-15T15:36:12;13.50;1.00
9885;DHT22;4981;50.966;4.842;2023-02-15T15:38:51;13.60;1.00
9885;DHT22;4981;50.966;4.842;2023-02-15T15:41:32;13.60;1.00
9885;DHT22;4981;50.966;4.842;2023-02-15T15:44:28;13.50;1.00
9885;DHT22;4981;50.966;4.842;2023-02-15T15:52:26;13.40;1.00
9885;DHT22;4981;50.966;4.842;2023-02-15T15:54:56;13.30;1.00
9885;DHT22;4981;50.966;4.842;2023-02-15T15:57:28;13.50;1.00
9885;DHT22;4981;50.966;4.842;2023-02-15T15:59:56;14.20;1.00
9885;DHT22;4981;50.966;4.842;2023-02-15T16:02:25;13.40;1.00
9885;DHT22;4981;50.966;4.842;2023-02-15T16:04:53;13.40;1.00
9885;DHT22;4981;50.966;4.842;2023-02-15T16:07:25;13.10;1.00
9885;DHT22;4981;50.966;4.842;2023-02-15T16:14:52;13.00;1.00
9885;DHT22;4981;50.966;4.842;2023-02-15T16:17:24;12.80;1.00
9885;DHT22;4981;50.966;4.842;2023-02-15T16:19:54;12.80;1.00
9885;DHT22;4981;50.966;4.842;2023-02-15T16:22:26;12.80;1.00
9885;DHT22;4981;50.966;4.842;2023-02-15T16:25:11;12.90;1.00
9885;DHT22;4981;50.966;4.842;2023-02-15T16:27:41;12.70;1.00
9885;DHT22;4981;50.966;4.842;2023-02-15T16:52:57;11.80;1.00
9885;DHT22;4981;50.966;4.842;2023-02-15T17:02:56;11.60;1.00
9885;DHT22;4981;50.966;4.842;2023-02-15T17:08:15;11.50;1.00
9885;DHT22;4981;50.966;4.842;2023-02-15T17:10:46;11.60;1.00
9885;DHT22;4981;50.966;4.842;2023-02-15T17:13:15;11.50;1.00
9885;DHT22;4981;50.966;4.842;2023-02-15T17:15:43;11.50;1.00
9885;DHT22;4981;50.966;4.842;2023-02-15T17:18:16;11.10;1.00
9885;DHT22;4981;50.966;4.842;2023-02-15T17:23:22;11.00;1.00
9885;DHT22;4981;50.966;4.842;2023-02-15T17:25:51;11.10;1.00
9885;DHT22;4981;50.966;4.842;2023-02-15T17:28:20;11.10;1.00
9885;DHT22;4981;50.966;4.842;2023-02-15T17:30:49;11.00;1.00
9885;DHT22;4981;50.966;4.842;2023-02-15T18:19:42;10.20;1.00
9885;DHT22;4981;50.966;4.842;2023-02-15T18:24:38;10.10;1.00
9885;DHT22;4981;50.966;4.842;2023-02-15T18:27:05;10.10;1.00
9885;DHT22;4981;50.966;4.842;2023-02-15T18:32:03;9.60;1.00
9885;DHT22;4981;50.966;4.842;2023-02-15T18:39:36;9.60;1.00
9885;DHT22;4981;50.966;4.842;2023-02-15T18:42:05;9.80;1.00
9885;DHT22;4981;50.966;4.842;2023-02-15T18:49:31;9.60;1.00
9885;DHT22;4981;50.966;4.842;2023-02-15T21:13:47;8.00;1.00
9885;DHT22;4981;50.966;4.842;2023-02-15T21:16:16;8.30;1.00
9885;DHT22;4981;50.966;4.842;2023-02-15T21:23:43;8.20;1.00
9885;DHT22;4981;50.966;4.842;2023-02-15T21:28:41;8.40;1.00
9885;DHT22;4981;50.966;4.842;2023-02-15T21:33:46;8.20;1.00
9885;DHT22;4981;50.966;4.842;2023-02-15T21:36:14;8.20;1.00
9885;DHT22;4981;50.966;4.842;2023-02-15T21:38:42;8.20;1.00
9885;DHT22;4981;50.966;4.842;2023-02-15T21:41:15;8.10;1.00
9885;DHT22;4981;50.966;4.842;2023-02-15T21:44:01;8.20;1.00
9885;DHT22;4981;50.966;4.842;2023-02-15T21:46:45;8.10;1.00
9885;DHT22;4981;50.966;4.842;2023-02-15T21:49:31;8.10;1.00
9885;DHT22;4981;50.966;4.842;2023-02-15T21:52:06;7.90;1.00
9885;DHT22;4981;50.966;4.842;2023-02-15T21:54:39;8.10;1.00
9885;DHT22;4981;50.966;4.842;2023-02-15T21:57:12;8.00;1.00
9885;DHT22;4981;50.966;4.842;2023-02-15T21:59:40;8.20;1.00
9885;DHT22;4981;50.966;4.842;2023-02-15T22:02:25;8.00;1.00
9885;DHT22;4981;50.966;4.842;2023-02-15T22:04:55;7.90;1.00
9885;DHT22;4981;50.966;4.842;2023-02-15T22:07:22;7.90;1.00
9885;DHT22;4981;50.966;4.842;2023-02-15T22:09:50;8.20;1.00
9885;DHT22;4981;50.966;4.842;2023-02-15T22:12:20;8.20;1.00
9885;DHT22;4981;50.966;4.842;2023-02-15T22:14:50;7.90;1.00
9885;DHT22;4981;50.966;4.842;2023-02-15T22:17:19;8.20;1.00
9885;DHT22;4981;50.966;4.842;2023-02-15T22:24:45;8.10;1.00
9885;DHT22;4981;50.966;4.842;2023-02-15T22:27:17;8.20;1.00
9885;DHT22;4981;50.966;4.842;2023-02-15T22:32:16;7.90;1.00
9885;DHT22;4981;50.966;4.842;2023-02-15T22:34:44;8.10;1.00
9885;DHT22;4981;50.966;4.842;2023-02-15T22:37:12;8.00;1.00
9885;DHT22;4981;50.966;4.842;2023-02-15T22:39:41;7.80;1.00
9885;DHT22;4981;50.966;4.842;2023-02-15T22:42:18;7.90;1.00
9885;DHT22;4981;50.966;4.842;2023-02-15T22:44:46;8.10;1.00
9885;DHT22;4981;50.966;4.842;2023-02-15T22:49:44;7.90;1.00
9885;DHT22;4981;50.966;4.842;2023-02-15T22:52:12;8.20;1.00
9885;DHT22;4981;50.966;4.842;2023-02-15T22:54:41;8.10;1.00
9885;DHT22;4981;50.966;4.842;2023-02-15T22:57:15;8.00;1.00
9885;DHT22;4981;50.966;4.842;2023-02-15T22:59:45;7.80;1.00
9885;DHT22;4981;50.966;4.842;2023-02-15T23:02:13;7.60;1.00
9885;DHT22;4981;50.966;4.842;2023-02-15T23:04:41;7.60;1.00
9885;DHT22;4981;50.966;4.842;2023-02-15T23:07:12;7.60;1.00
9885;DHT22;4981;50.966;4.842;2023-02-15T23:12:22;7.60;1.00
9885;DHT22;4981;50.966;4.842;2023-02-15T23:14:50;7.90;1.00
9885;DHT22;4981;50.966;4.842;2023-02-15T23:17:17;7.20;1.00
9885;DHT22;4981;50.966;4.842;2023-02-15T23:19:45;7.80;1.00
9885;DHT22;4981;50.966;4.842;2023-02-15T23:22:13;7.80;1.00
9885;DHT22;4981;50.966;4.842;2023-02-15T23:27:19;7.40;1.00
9885;DHT22;4981;50.966;4.842;2023-02-15T23:30:05;7.50;1.00
9885;DHT22;4981;50.966;4.842;2023-02-15T23:32:34;7.50;1.00
9885;DHT22;4981;50.966;4.842;2023-02-15T23:35:04;7.60;1.00
9885;DHT22;4981;50.966;4.842;2023-02-15T23:37:37;7.60;1.00
9885;DHT22;4981;50.966;4.842;2023-02-15T23:40:12;7.60;1.00
9885;DHT22;4981;50.966;4.842;2023-02-15T23:43:05;7.60;1.00
9885;DHT22;4981;50.966;4.842;2023-02-15T23:45:37;7.50;1.00
9885;DHT22;4981;50.966;4.842;2023-02-15T23:48:19;7.30;1.00
9885;DHT22;4981;50.966;4.842;2023-02-15T23:50:58;7.10;1.00
9885;DHT22;4981;50.966;4.842;2023-02-15T23:53:25;7.30;1.00
9885;DHT22;4981;50.966;4.842;2023-02-15T23:55:56;7.10;1.00
9885;DHT22;4981;50.966;4.842;2023-02-15T23:58:32;7.30;1.00
